HTDA/DAR METAR and TAF weather

Enter ICAO airport designator
Station Type Date Time Source
HTDA METAR 2020/05/29 18:00 UTC NOAA

HTDA 291800Z 18005KT 9999 FEW014 24/21 Q1015 NOSIG


Station Type Date Time Source
HTDA Decoded METAR 2020/05/29 18:00 UTC NOAA

Dar Es Salaam Airport, Tanzania (HTDA) 06-52S 039-12E 55M
May 29, 2020 - 02:00 PM EDT / 2020.05.29 1800 UTC
Wind: from the S (180 degrees) at 6 MPH (5 KT):0
Visibility: greater than 7 mile(s):0
Sky conditions: mostly clear
Temperature: 75 F (24 C)
Dew Point: 69 F (21 C)
Relative Humidity: 83%
Pressure (altimeter): 29.97 in. Hg (1015 hPa)
ob: HTDA 291800Z 18005KT 9999 FEW014 24/21 Q1015 NOSIG
cycle: 18

Station Type Date Time Source
HTDA TAF 2020/05/29 12:36 UTC NOAA

TAF TAF HTDA 291100Z 2912/3018 15010KT 9999 SCT025
TEMPO 2912/2914 00000KT BKN030
BECMG 2922/3000 00000KT 9999 BKN017

Example: see airport list